sensor_id;sensor_type;location;lat;lon;timestamp;P1;durP1;ratioP1;P2;durP2;ratioP2
53313;SDS011;39202;51.468;7.146;2023-08-06T00:03:23;1.45;;;1.35;;
53313;SDS011;39202;51.468;7.146;2023-08-06T00:08:25;1.20;;;1.20;;
53313;SDS011;39202;51.468;7.146;2023-08-06T00:13:28;1.23;;;1.23;;
53313;SDS011;39202;51.468;7.146;2023-08-06T00:18:30;1.30;;;1.30;;
53313;SDS011;39202;51.468;7.146;2023-08-06T00:23:32;1.10;;;1.10;;
53313;SDS011;39202;51.468;7.146;2023-08-06T00:28:35;1.10;;;1.10;;
53313;SDS011;39202;51.468;7.146;2023-08-06T00:33:36;1.20;;;1.20;;
53313;SDS011;39202;51.468;7.146;2023-08-06T00:38:38;1.30;;;1.30;;
53313;SDS011;39202;51.468;7.146;2023-08-06T00:43:41;1.05;;;1.05;;
53313;SDS011;39202;51.468;7.146;2023-08-06T00:54:25;1.13;;;1.13;;
53313;SDS011;39202;51.468;7.146;2023-08-06T00:59:49;1.20;;;1.20;;
53313;SDS011;39202;51.468;7.146;2023-08-06T01:53:13;1.20;;;1.20;;
53313;SDS011;39202;51.468;7.146;2023-08-06T01:58:14;1.20;;;1.20;;
53313;SDS011;39202;51.468;7.146;2023-08-06T02:03:16;1.30;;;1.30;;
53313;SDS011;39202;51.468;7.146;2023-08-06T02:08:19;1.10;;;1.10;;
53313;SDS011;39202;51.468;7.146;2023-08-06T02:13:21;1.20;;;1.20;;
53313;SDS011;39202;51.468;7.146;2023-08-06T02:18:22;1.27;;;1.27;;
53313;SDS011;39202;51.468;7.146;2023-08-06T02:23:26;1.30;;;1.30;;
53313;SDS011;39202;51.468;7.146;2023-08-06T02:28:27;1.10;;;1.10;;
53313;SDS011;39202;51.468;7.146;2023-08-06T02:33:29;1.10;;;1.10;;
53313;SDS011;39202;51.468;7.146;2023-08-06T02:38:32;1.17;;;1.17;;
53313;SDS011;39202;51.468;7.146;2023-08-06T02:43:34;1.10;;;1.10;;
53313;SDS011;39202;51.468;7.146;2023-08-06T02:48:36;1.20;;;1.20;;
53313;SDS011;39202;51.468;7.146;2023-08-06T02:53:39;1.10;;;1.10;;
53313;SDS011;39202;51.468;7.146;2023-08-06T02:58:41;1.10;;;1.10;;
53313;SDS011;39202;51.468;7.146;2023-08-06T03:03:43;1.00;;;1.00;;
53313;SDS011;39202;51.468;7.146;2023-08-06T03:08:46;1.02;;;1.00;;
53313;SDS011;39202;51.468;7.146;2023-08-06T03:13:48;1.10;;;1.10;;
53313;SDS011;39202;51.468;7.146;2023-08-06T03:18:49;1.20;;;1.20;;
53313;SDS011;39202;51.468;7.146;2023-08-06T03:23:52;1.10;;;1.10;;
53313;SDS011;39202;51.468;7.146;2023-08-06T03:28:54;1.10;;;1.10;;
53313;SDS011;39202;51.468;7.146;2023-08-06T03:33:56;1.10;;;1.10;;
53313;SDS011;39202;51.468;7.146;2023-08-06T03:38:59;1.42;;;1.42;;
53313;SDS011;39202;51.468;7.146;2023-08-06T03:44:00;1.23;;;1.23;;
53313;SDS011;39202;51.468;7.146;2023-08-06T03:49:03;1.00;;;1.00;;
53313;SDS011;39202;51.468;7.146;2023-08-06T03:54:06;1.10;;;1.10;;
53313;SDS011;39202;51.468;7.146;2023-08-06T03:59:08;1.10;;;1.10;;
53313;SDS011;39202;51.468;7.146;2023-08-06T04:04:10;1.30;;;1.30;;
53313;SDS011;39202;51.468;7.146;2023-08-06T04:09:13;1.10;;;1.10;;
53313;SDS011;39202;51.468;7.146;2023-08-06T04:14:14;1.20;;;1.20;;
53313;SDS011;39202;51.468;7.146;2023-08-06T04:19:16;1.10;;;1.10;;
53313;SDS011;39202;51.468;7.146;2023-08-06T04:24:19;1.10;;;1.10;;
53313;SDS011;39202;51.468;7.146;2023-08-06T04:29:21;1.10;;;1.10;;
53313;SDS011;39202;51.468;7.146;2023-08-06T04:34:22;1.00;;;1.00;;
53313;SDS011;39202;51.468;7.146;2023-08-06T04:39:25;1.08;;;1.08;;
53313;SDS011;39202;51.468;7.146;2023-08-06T04:44:27;1.10;;;1.10;;
53313;SDS011;39202;51.468;7.146;2023-08-06T04:49:29;1.10;;;1.10;;
53313;SDS011;39202;51.468;7.146;2023-08-06T04:54:32;1.00;;;1.00;;
53313;SDS011;39202;51.468;7.146;2023-08-06T04:59:34;0.90;;;0.90;;
53313;SDS011;39202;51.468;7.146;2023-08-06T05:04:36;1.00;;;1.00;;
53313;SDS011;39202;51.468;7.146;2023-08-06T05:09:39;1.00;;;1.00;;
53313;SDS011;39202;51.468;7.146;2023-08-06T05:14:41;1.17;;;1.17;;
53313;SDS011;39202;51.468;7.146;2023-08-06T05:19:43;0.98;;;0.98;;
53313;SDS011;39202;51.468;7.146;2023-08-06T05:24:46;1.10;;;1.10;;
53313;SDS011;39202;51.468;7.146;2023-08-06T05:29:47;1.10;;;1.10;;
53313;SDS011;39202;51.468;7.146;2023-08-06T05:34:49;1.00;;;1.00;;
53313;SDS011;39202;51.468;7.146;2023-08-06T05:39:52;1.00;;;1.00;;
53313;SDS011;39202;51.468;7.146;2023-08-06T05:44:54;1.10;;;1.10;;
53313;SDS011;39202;51.468;7.146;2023-08-06T05:49:56;1.10;;;1.10;;
53313;SDS011;39202;51.468;7.146;2023-08-06T05:54:59;1.05;;;1.05;;
53313;SDS011;39202;51.468;7.146;2023-08-06T06:00:00;1.00;;;1.00;;
53313;SDS011;39202;51.468;7.146;2023-08-06T06:05:04;1.10;;;1.10;;
53313;SDS011;39202;51.468;7.146;2023-08-06T06:10:08;1.00;;;1.00;;
53313;SDS011;39202;51.468;7.146;2023-08-06T06:15:10;0.98;;;0.98;;
53313;SDS011;39202;51.468;7.146;2023-08-06T06:20:12;1.05;;;1.05;;
53313;SDS011;39202;51.468;7.146;2023-08-06T06:25:15;0.90;;;0.90;;
53313;SDS011;39202;51.468;7.146;2023-08-06T06:30:17;0.90;;;0.90;;
53313;SDS011;39202;51.468;7.146;2023-08-06T06:35:19;1.10;;;1.10;;
53313;SDS011;39202;51.468;7.146;2023-08-06T06:40:22;0.90;;;0.90;;
53313;SDS011;39202;51.468;7.146;2023-08-06T06:45:23;1.00;;;1.00;;
53313;SDS011;39202;51.468;7.146;2023-08-06T06:50:25;0.95;;;0.95;;
53313;SDS011;39202;51.468;7.146;2023-08-06T06:55:28;1.00;;;1.00;;
53313;SDS011;39202;51.468;7.146;2023-08-06T07:00:30;1.13;;;1.13;;
53313;SDS011;39202;51.468;7.146;2023-08-06T07:05:32;1.10;;;1.10;;
53313;SDS011;39202;51.468;7.146;2023-08-06T07:10:35;0.90;;;0.90;;
53313;SDS011;39202;51.468;7.146;2023-08-06T07:15:37;1.00;;;1.00;;
53313;SDS011;39202;51.468;7.146;2023-08-06T07:20:38;1.00;;;1.00;;
53313;SDS011;39202;51.468;7.146;2023-08-06T07:25:41;0.90;;;0.90;;
53313;SDS011;39202;51.468;7.146;2023-08-06T07:30:44;0.95;;;0.95;;
53313;SDS011;39202;51.468;7.146;2023-08-06T07:35:46;0.98;;;0.98;;
53313;SDS011;39202;51.468;7.146;2023-08-06T07:40:49;0.88;;;0.88;;
53313;SDS011;39202;51.468;7.146;2023-08-06T07:45:51;0.90;;;0.90;;
53313;SDS011;39202;51.468;7.146;2023-08-06T07:50:53;0.90;;;0.90;;
53313;SDS011;39202;51.468;7.146;2023-08-06T07:55:56;1.10;;;1.10;;
53313;SDS011;39202;51.468;7.146;2023-08-06T08:00:58;0.90;;;0.90;;
53313;SDS011;39202;51.468;7.146;2023-08-06T08:05:59;0.90;;;0.90;;
53313;SDS011;39202;51.468;7.146;2023-08-06T08:11:02;0.90;;;0.90;;
53313;SDS011;39202;51.468;7.146;2023-08-06T08:16:04;0.95;;;0.95;;
53313;SDS011;39202;51.468;7.146;2023-08-06T08:21:06;1.00;;;1.00;;
53313;SDS011;39202;51.468;7.146;2023-08-06T08:26:10;1.00;;;1.00;;
53313;SDS011;39202;51.468;7.146;2023-08-06T08:31:11;1.08;;;1.08;;
53313;SDS011;39202;51.468;7.146;2023-08-06T08:36:13;0.98;;;0.98;;
53313;SDS011;39202;51.468;7.146;2023-08-06T08:41:16;0.85;;;0.85;;
53313;SDS011;39202;51.468;7.146;2023-08-06T08:46:18;0.90;;;0.90;;
53313;SDS011;39202;51.468;7.146;2023-08-06T08:51:21;1.10;;;0.90;;
53313;SDS011;39202;51.468;7.146;2023-08-06T08:56:24;0.82;;;0.82;;
53313;SDS011;39202;51.468;7.146;2023-08-06T09:01:27;1.00;;;1.00;;
53313;SDS011;39202;51.468;7.146;2023-08-06T09:06:29;0.98;;;0.98;;
53313;SDS011;39202;51.468;7.146;2023-08-06T09:11:35;0.80;;;0.80;;
53313;SDS011;39202;51.468;7.146;2023-08-06T09:16:40;1.00;;;1.00;;
53313;SDS011;39202;51.468;7.146;2023-08-06T09:21:42;0.90;;;0.90;;
53313;SDS011;39202;51.468;7.146;2023-08-06T09:26:46;1.00;;;1.00;;
53313;SDS011;39202;51.468;7.146;2023-08-06T09:31:48;0.90;;;0.90;;
53313;SDS011;39202;51.468;7.146;2023-08-06T09:36:52;1.10;;;1.10;;
53313;SDS011;39202;51.468;7.146;2023-08-06T09:41:56;1.17;;;1.08;;
53313;SDS011;39202;51.468;7.146;2023-08-06T09:46:59;0.82;;;0.82;;
53313;SDS011;39202;51.468;7.146;2023-08-06T09:52:03;0.88;;;0.88;;
53313;SDS011;39202;51.468;7.146;2023-08-06T09:57:07;0.90;;;0.90;;
53313;SDS011;39202;51.468;7.146;2023-08-06T10:02:12;0.95;;;0.95;;
53313;SDS011;39202;51.468;7.146;2023-08-06T10:07:14;1.00;;;1.00;;
53313;SDS011;39202;51.468;7.146;2023-08-06T10:12:18;0.82;;;0.82;;
53313;SDS011;39202;51.468;7.146;2023-08-06T10:17:21;0.95;;;0.95;;
53313;SDS011;39202;51.468;7.146;2023-08-06T10:22:24;0.90;;;0.90;;
53313;SDS011;39202;51.468;7.146;2023-08-06T10:27:30;1.08;;;1.08;;
53313;SDS011;39202;51.468;7.146;2023-08-06T10:32:46;0.95;;;0.95;;
53313;SDS011;39202;51.468;7.146;2023-08-06T10:37:48;1.20;;;1.20;;
53313;SDS011;39202;51.468;7.146;2023-08-06T10:42:51;1.05;;;1.05;;
53313;SDS011;39202;51.468;7.146;2023-08-06T10:47:53;1.10;;;1.10;;
53313;SDS011;39202;51.468;7.146;2023-08-06T10:52:55;0.93;;;0.93;;
53313;SDS011;39202;51.468;7.146;2023-08-06T10:57:58;1.00;;;1.00;;
53313;SDS011;39202;51.468;7.146;2023-08-06T11:03:00;0.90;;;0.90;;
53313;SDS011;39202;51.468;7.146;2023-08-06T11:08:02;0.98;;;0.98;;
53313;SDS011;39202;51.468;7.146;2023-08-06T11:13:05;0.98;;;0.98;;
53313;SDS011;39202;51.468;7.146;2023-08-06T11:18:07;1.13;;;1.13;;
53313;SDS011;39202;51.468;7.146;2023-08-06T11:23:10;0.90;;;0.90;;
53313;SDS011;39202;51.468;7.146;2023-08-06T11:28:13;1.35;;;1.27;;
53313;SDS011;39202;51.468;7.146;2023-08-06T11:33:17;0.93;;;0.93;;
53313;SDS011;39202;51.468;7.146;2023-08-06T11:38:24;1.15;;;1.10;;
53313;SDS011;39202;51.468;7.146;2023-08-06T11:43:29;1.10;;;1.10;;
53313;SDS011;39202;51.468;7.146;2023-08-06T11:48:33;1.35;;;1.35;;
53313;SDS011;39202;51.468;7.146;2023-08-06T11:53:54;1.15;;;1.00;;
53313;SDS011;39202;51.468;7.146;2023-08-06T11:58:57;1.42;;;1.33;;
53313;SDS011;39202;51.468;7.146;2023-08-06T12:03:59;1.35;;;1.27;;
53313;SDS011;39202;51.468;7.146;2023-08-06T12:09:01;1.65;;;1.45;;
53313;SDS011;39202;51.468;7.146;2023-08-06T12:14:04;1.70;;;1.30;;
53313;SDS011;39202;51.468;7.146;2023-08-06T12:19:06;1.40;;;1.30;;
53313;SDS011;39202;51.468;7.146;2023-08-06T12:24:08;1.20;;;1.20;;
53313;SDS011;39202;51.468;7.146;2023-08-06T12:29:12;1.50;;;1.40;;
53313;SDS011;39202;51.468;7.146;2023-08-06T12:34:13;1.40;;;1.30;;
53313;SDS011;39202;51.468;7.146;2023-08-06T12:39:15;1.30;;;1.30;;
53313;SDS011;39202;51.468;7.146;2023-08-06T12:44:18;1.30;;;1.30;;
53313;SDS011;39202;51.468;7.146;2023-08-06T12:49:20;1.50;;;1.40;;
53313;SDS011;39202;51.468;7.146;2023-08-06T12:54:22;1.48;;;1.38;;
53313;SDS011;39202;51.468;7.146;2023-08-06T12:59:25;1.45;;;1.35;;
53313;SDS011;39202;51.468;7.146;2023-08-06T13:04:27;1.50;;;1.40;;
53313;SDS011;39202;51.468;7.146;2023-08-06T13:09:29;1.55;;;1.45;;
53313;SDS011;39202;51.468;7.146;2023-08-06T13:14:32;1.70;;;1.60;;
53313;SDS011;39202;51.468;7.146;2023-08-06T13:19:34;1.50;;;1.40;;
53313;SDS011;39202;51.468;7.146;2023-08-06T13:24:35;1.42;;;1.33;;
53313;SDS011;39202;51.468;7.146;2023-08-06T13:29:38;1.45;;;1.35;;
53313;SDS011;39202;51.468;7.146;2023-08-06T13:34:40;1.70;;;1.60;;
53313;SDS011;39202;51.468;7.146;2023-08-06T13:39:42;1.30;;;1.30;;
53313;SDS011;39202;51.468;7.146;2023-08-06T13:44:45;1.50;;;1.40;;
53313;SDS011;39202;51.468;7.146;2023-08-06T13:49:47;1.60;;;1.30;;
53313;SDS011;39202;51.468;7.146;2023-08-06T13:54:49;1.20;;;1.20;;
53313;SDS011;39202;51.468;7.146;2023-08-06T13:59:52;1.40;;;1.30;;
53313;SDS011;39202;51.468;7.146;2023-08-06T14:04:54;1.23;;;1.23;;
53313;SDS011;39202;51.468;7.146;2023-08-06T14:09:56;1.30;;;1.20;;
53313;SDS011;39202;51.468;7.146;2023-08-06T14:14:59;1.20;;;1.20;;
53313;SDS011;39202;51.468;7.146;2023-08-06T14:20:03;1.38;;;1.27;;
53313;SDS011;39202;51.468;7.146;2023-08-06T14:25:07;1.38;;;1.30;;
53313;SDS011;39202;51.468;7.146;2023-08-06T14:30:11;1.45;;;1.20;;
53313;SDS011;39202;51.468;7.146;2023-08-06T14:35:13;1.30;;;1.20;;
53313;SDS011;39202;51.468;7.146;2023-08-06T14:40:15;1.58;;;1.40;;
53313;SDS011;39202;51.468;7.146;2023-08-06T14:45:18;1.60;;;1.50;;
53313;SDS011;39202;51.468;7.146;2023-08-06T14:50:19;1.30;;;1.20;;
53313;SDS011;39202;51.468;7.146;2023-08-06T14:55:24;1.20;;;1.20;;
53313;SDS011;39202;51.468;7.146;2023-08-06T15:00:28;1.38;;;1.27;;
53313;SDS011;39202;51.468;7.146;2023-08-06T15:05:29;1.38;;;1.27;;
53313;SDS011;39202;51.468;7.146;2023-08-06T15:10:31;1.05;;;1.05;;
53313;SDS011;39202;51.468;7.146;2023-08-06T15:15:34;1.38;;;1.38;;
53313;SDS011;39202;51.468;7.146;2023-08-06T15:20:39;1.08;;;1.08;;
53313;SDS011;39202;51.468;7.146;2023-08-06T15:25:41;1.25;;;1.25;;
53313;SDS011;39202;51.468;7.146;2023-08-06T15:30:47;1.10;;;1.10;;
53313;SDS011;39202;51.468;7.146;2023-08-06T15:35:50;0.95;;;0.95;;
53313;SDS011;39202;51.468;7.146;2023-08-06T15:40:53;1.20;;;1.20;;
53313;SDS011;39202;51.468;7.146;2023-08-06T15:45:56;1.10;;;1.00;;
53313;SDS011;39202;51.468;7.146;2023-08-06T15:50:58;1.23;;;1.20;;
53313;SDS011;39202;51.468;7.146;2023-08-06T15:56:00;1.25;;;1.23;;
53313;SDS011;39202;51.468;7.146;2023-08-06T16:01:03;0.90;;;0.90;;
53313;SDS011;39202;51.468;7.146;2023-08-06T16:06:05;0.90;;;0.90;;
53313;SDS011;39202;51.468;7.146;2023-08-06T16:11:07;1.13;;;1.02;;
53313;SDS011;39202;51.468;7.146;2023-08-06T16:16:10;1.10;;;1.10;;
53313;SDS011;39202;51.468;7.146;2023-08-06T16:21:12;1.08;;;1.08;;
53313;SDS011;39202;51.468;7.146;2023-08-06T16:26:13;1.00;;;1.00;;
53313;SDS011;39202;51.468;7.146;2023-08-06T16:31:17;0.95;;;0.95;;
53313;SDS011;39202;51.468;7.146;2023-08-06T16:36:19;1.05;;;1.05;;
53313;SDS011;39202;51.468;7.146;2023-08-06T16:41:20;1.02;;;1.02;;
53313;SDS011;39202;51.468;7.146;2023-08-06T16:46:24;0.90;;;0.90;;
53313;SDS011;39202;51.468;7.146;2023-08-06T16:51:25;1.08;;;1.08;;
53313;SDS011;39202;51.468;7.146;2023-08-06T16:56:28;1.02;;;1.02;;
53313;SDS011;39202;51.468;7.146;2023-08-06T17:01:31;1.10;;;1.10;;
53313;SDS011;39202;51.468;7.146;2023-08-06T17:06:35;1.10;;;1.10;;
53313;SDS011;39202;51.468;7.146;2023-08-06T17:11:37;1.10;;;1.10;;
53313;SDS011;39202;51.468;7.146;2023-08-06T17:16:40;1.17;;;1.15;;
53313;SDS011;39202;51.468;7.146;2023-08-06T17:21:41;1.00;;;1.00;;
53313;SDS011;39202;51.468;7.146;2023-08-06T17:26:43;1.00;;;1.00;;
53313;SDS011;39202;51.468;7.146;2023-08-06T17:31:46;1.08;;;1.08;;
53313;SDS011;39202;51.468;7.146;2023-08-06T17:36:48;0.90;;;0.90;;
53313;SDS011;39202;51.468;7.146;2023-08-06T17:41:50;1.00;;;1.00;;
53313;SDS011;39202;51.468;7.146;2023-08-06T17:46:53;1.00;;;1.00;;
53313;SDS011;39202;51.468;7.146;2023-08-06T17:51:54;1.00;;;1.00;;
53313;SDS011;39202;51.468;7.146;2023-08-06T17:56:56;0.90;;;0.90;;
53313;SDS011;39202;51.468;7.146;2023-08-06T18:01:59;1.08;;;1.05;;
53313;SDS011;39202;51.468;7.146;2023-08-06T18:07:01;1.20;;;1.20;;
53313;SDS011;39202;51.468;7.146;2023-08-06T18:12:03;1.10;;;1.10;;
53313;SDS011;39202;51.468;7.146;2023-08-06T18:17:09;0.90;;;0.90;;
53313;SDS011;39202;51.468;7.146;2023-08-06T18:22:11;0.82;;;0.82;;
53313;SDS011;39202;51.468;7.146;2023-08-06T18:27:13;1.10;;;1.10;;
53313;SDS011;39202;51.468;7.146;2023-08-06T18:32:19;1.75;;;1.00;;
53313;SDS011;39202;51.468;7.146;2023-08-06T18:37:21;1.33;;;1.10;;
53313;SDS011;39202;51.468;7.146;2023-08-06T18:42:23;1.30;;;1.20;;
53313;SDS011;39202;51.468;7.146;2023-08-06T18:47:26;1.83;;;1.10;;
53313;SDS011;39202;51.468;7.146;2023-08-06T18:52:28;0.82;;;0.80;;
53313;SDS011;39202;51.468;7.146;2023-08-06T18:57:30;0.90;;;0.90;;
53313;SDS011;39202;51.468;7.146;2023-08-06T19:02:33;0.90;;;0.90;;
53313;SDS011;39202;51.468;7.146;2023-08-06T19:07:35;1.83;;;1.10;;
53313;SDS011;39202;51.468;7.146;2023-08-06T19:12:36;0.85;;;0.85;;
53313;SDS011;39202;51.468;7.146;2023-08-06T19:17:40;1.30;;;1.20;;
53313;SDS011;39202;51.468;7.146;2023-08-06T19:22:41;0.80;;;0.80;;
53313;SDS011;39202;51.468;7.146;2023-08-06T19:27:43;0.98;;;0.98;;
53313;SDS011;39202;51.468;7.146;2023-08-06T19:32:46;0.95;;;0.95;;
53313;SDS011;39202;51.468;7.146;2023-08-06T19:37:48;1.00;;;1.00;;
53313;SDS011;39202;51.468;7.146;2023-08-06T19:42:50;0.80;;;0.80;;
53313;SDS011;39202;51.468;7.146;2023-08-06T19:47:53;0.95;;;0.93;;
53313;SDS011;39202;51.468;7.146;2023-08-06T19:52:54;0.82;;;0.82;;
53313;SDS011;39202;51.468;7.146;2023-08-06T19:57:56;0.90;;;0.90;;
53313;SDS011;39202;51.468;7.146;2023-08-06T20:02:59;0.93;;;0.93;;
53313;SDS011;39202;51.468;7.146;2023-08-06T20:08:01;1.00;;;1.00;;
53313;SDS011;39202;51.468;7.146;2023-08-06T20:13:03;0.70;;;0.70;;
53313;SDS011;39202;51.468;7.146;2023-08-06T20:18:06;0.75;;;0.75;;
53313;SDS011;39202;51.468;7.146;2023-08-06T20:23:09;1.00;;;1.00;;
53313;SDS011;39202;51.468;7.146;2023-08-06T20:28:11;0.95;;;0.95;;
53313;SDS011;39202;51.468;7.146;2023-08-06T20:33:14;0.88;;;0.88;;
53313;SDS011;39202;51.468;7.146;2023-08-06T20:38:15;0.80;;;0.80;;
53313;SDS011;39202;51.468;7.146;2023-08-06T20:43:19;1.05;;;1.05;;
53313;SDS011;39202;51.468;7.146;2023-08-06T20:48:22;1.00;;;0.90;;
53313;SDS011;39202;51.468;7.146;2023-08-06T20:53:25;0.75;;;0.75;;
53313;SDS011;39202;51.468;7.146;2023-08-06T20:58:26;0.90;;;0.90;;
53313;SDS011;39202;51.468;7.146;2023-08-06T21:03:30;0.70;;;0.70;;
53313;SDS011;39202;51.468;7.146;2023-08-06T21:08:33;0.80;;;0.80;;
53313;SDS011;39202;51.468;7.146;2023-08-06T21:13:36;0.88;;;0.88;;
53313;SDS011;39202;51.468;7.146;2023-08-06T21:18:39;0.80;;;0.80;;
53313;SDS011;39202;51.468;7.146;2023-08-06T21:23:41;0.70;;;0.70;;
53313;SDS011;39202;51.468;7.146;2023-08-06T21:28:43;0.90;;;0.90;;
53313;SDS011;39202;51.468;7.146;2023-08-06T21:33:46;1.00;;;0.90;;
53313;SDS011;39202;51.468;7.146;2023-08-06T21:38:49;0.75;;;0.70;;
53313;SDS011;39202;51.468;7.146;2023-08-06T21:43:50;0.80;;;0.80;;
53313;SDS011;39202;51.468;7.146;2023-08-06T21:48:54;0.77;;;0.77;;
53313;SDS011;39202;51.468;7.146;2023-08-06T21:53:57;0.57;;;0.57;;
53313;SDS011;39202;51.468;7.146;2023-08-06T21:58:59;0.80;;;0.80;;
53313;SDS011;39202;51.468;7.146;2023-08-06T22:04:02;0.73;;;0.73;;
53313;SDS011;39202;51.468;7.146;2023-08-06T22:09:04;0.70;;;0.70;;
53313;SDS011;39202;51.468;7.146;2023-08-06T22:14:06;0.75;;;0.75;;
53313;SDS011;39202;51.468;7.146;2023-08-06T22:19:09;0.68;;;0.68;;
53313;SDS011;39202;51.468;7.146;2023-08-06T22:24:10;0.70;;;0.70;;
53313;SDS011;39202;51.468;7.146;2023-08-06T22:29:12;0.80;;;0.80;;
53313;SDS011;39202;51.468;7.146;2023-08-06T22:34:15;0.77;;;0.77;;
53313;SDS011;39202;51.468;7.146;2023-08-06T22:39:17;0.80;;;0.80;;
53313;SDS011;39202;51.468;7.146;2023-08-06T22:44:18;0.70;;;0.70;;
53313;SDS011;39202;51.468;7.146;2023-08-06T22:49:21;0.75;;;0.75;;
53313;SDS011;39202;51.468;7.146;2023-08-06T22:54:23;0.73;;;0.73;;
53313;SDS011;39202;51.468;7.146;2023-08-06T22:59:25;0.77;;;0.77;;
53313;SDS011;39202;51.468;7.146;2023-08-06T23:04:28;0.70;;;0.70;;
53313;SDS011;39202;51.468;7.146;2023-08-06T23:09:30;0.73;;;0.73;;
53313;SDS011;39202;51.468;7.146;2023-08-06T23:14:32;0.68;;;0.68;;
53313;SDS011;39202;51.468;7.146;2023-08-06T23:19:35;0.77;;;0.73;;
53313;SDS011;39202;51.468;7.146;2023-08-06T23:24:37;0.77;;;0.77;;
53313;SDS011;39202;51.468;7.146;2023-08-06T23:29:39;0.70;;;0.70;;
53313;SDS011;39202;51.468;7.146;2023-08-06T23:34:42;0.52;;;0.52;;
53313;SDS011;39202;51.468;7.146;2023-08-06T23:39:43;0.70;;;0.70;;
53313;SDS011;39202;51.468;7.146;2023-08-06T23:44:45;0.80;;;0.80;;
53313;SDS011;39202;51.468;7.146;2023-08-06T23:49:48;1.30;;;0.80;;
53313;SDS011;39202;51.468;7.146;2023-08-06T23:54:50;0.70;;;0.65;;
53313;SDS011;39202;51.468;7.146;2023-08-06T23:59:51;0.60;;;0.60;;
